createdAt,value
2022-10-29T00:00:13.024Z,399.16
2022-10-29T00:01:13.112Z,399.97
2022-10-29T00:02:12.996Z,399.85
2022-10-29T00:03:13.074Z,399.52
2022-10-29T00:04:12.979Z,399.24
2022-10-29T00:05:12.972Z,399.10
2022-10-29T00:06:12.951Z,400.88
2022-10-29T00:07:12.961Z,399.84
2022-10-29T00:08:12.975Z,399.43
2022-10-29T00:09:12.935Z,399.98
2022-10-29T00:10:12.917Z,399.40
2022-10-29T00:11:12.912Z,399.38
2022-10-29T00:12:12.949Z,398.88
2022-10-29T00:13:12.906Z,399.52
2022-10-29T00:14:12.873Z,399.54
2022-10-29T00:15:12.863Z,401.41
2022-10-29T00:16:12.840Z,400.26
2022-10-29T00:17:12.851Z,399.52
2022-10-29T00:18:12.832Z,400.01
2022-10-29T00:19:12.801Z,400.35
2022-10-29T00:20:12.821Z,400.57
2022-10-29T00:21:12.804Z,401.15
2022-10-29T00:22:12.775Z,402.19
2022-10-29T00:23:12.767Z,400.86
2022-10-29T00:24:12.768Z,400.47
2022-10-29T00:25:12.740Z,400.24
2022-10-29T00:26:12.731Z,400.03
2022-10-29T00:27:12.741Z,400.52
2022-10-29T00:28:12.715Z,401.90
2022-10-29T00:29:12.705Z,400.67
2022-10-29T00:30:12.679Z,400.93
2022-10-29T00:31:12.713Z,401.39
2022-10-29T00:32:12.741Z,400.92
2022-10-29T00:33:12.683Z,400.30
2022-10-29T00:34:12.650Z,401.39
2022-10-29T00:35:12.633Z,399.57
2022-10-29T00:36:12.624Z,400.67
2022-10-29T00:37:12.614Z,402.97
2022-10-29T00:38:12.599Z,400.81
2022-10-29T00:39:12.585Z,402.43
2022-10-29T00:40:12.565Z,402.32
2022-10-29T00:41:12.572Z,400.67
2022-10-29T00:42:12.564Z,402.81
2022-10-29T00:43:12.537Z,400.27
2022-10-29T00:44:12.531Z,401.27
2022-10-29T00:45:12.523Z,400.69
2022-10-29T00:46:12.504Z,400.96
2022-10-29T00:47:12.531Z,401.55
2022-10-29T00:48:12.482Z,402.33
2022-10-29T00:49:12.473Z,400.59
2022-10-29T00:50:12.459Z,400.49
2022-10-29T00:51:12.450Z,400.43
2022-10-29T00:52:12.439Z,403.90
2022-10-29T00:53:12.464Z,401.81
2022-10-29T00:54:12.419Z,401.33
2022-10-29T00:55:12.402Z,399.89
2022-10-29T00:56:12.397Z,402.68
2022-10-29T00:57:12.380Z,401.67
2022-10-29T00:58:12.395Z,401.04
2022-10-29T00:59:12.362Z,401.68
2022-10-29T01:00:12.356Z,402.02
2022-10-29T01:01:12.435Z,400.83
2022-10-29T01:02:12.456Z,401.32
2022-10-29T01:03:12.472Z,401.08
2022-10-29T01:04:12.316Z,402.45
2022-10-29T01:05:12.290Z,400.40
2022-10-29T01:06:12.276Z,399.85
2022-10-29T01:07:12.276Z,401.95
2022-10-29T01:08:12.749Z,400.88
2022-10-29T01:09:13.215Z,400.69
2022-10-29T01:10:12.237Z,400.15
2022-10-29T01:11:12.227Z,400.64
2022-10-29T01:12:12.232Z,399.83
2022-10-29T01:13:12.385Z,400.38
2022-10-29T01:14:12.205Z,401.12
2022-10-29T01:15:12.184Z,400.61
2022-10-29T01:16:12.176Z,400.81
2022-10-29T01:17:12.163Z,400.38
2022-10-29T01:18:12.152Z,400.25
2022-10-29T01:19:12.817Z,401.37
2022-10-29T01:20:12.125Z,399.87
2022-10-29T01:21:12.117Z,400.79
2022-10-29T01:22:12.099Z,401.08
2022-10-29T01:23:12.094Z,402.54
2022-10-29T01:24:12.094Z,401.36
2022-10-29T01:25:12.077Z,401.19
2022-10-29T01:26:12.094Z,401.02
2022-10-29T01:27:12.054Z,400.98
2022-10-29T01:28:12.038Z,400.70
2022-10-29T01:29:12.029Z,400.79
2022-10-29T01:30:12.045Z,400.62
2022-10-29T01:31:12.019Z,400.28
2022-10-29T01:32:11.993Z,400.32
2022-10-29T01:33:11.998Z,400.39
2022-10-29T01:34:11.967Z,400.56
2022-10-29T01:35:11.954Z,400.21
2022-10-29T01:36:11.963Z,400.00
2022-10-29T01:37:11.947Z,400.88
2022-10-29T01:38:11.929Z,401.19
2022-10-29T01:39:11.909Z,400.30
2022-10-29T01:40:11.909Z,401.43
2022-10-29T01:41:11.897Z,401.55
2022-10-29T01:42:11.899Z,401.37
2022-10-29T01:43:11.929Z,401.97
2022-10-29T01:44:11.859Z,401.66
2022-10-29T01:45:11.849Z,401.75
2022-10-29T01:46:11.835Z,400.77
2022-10-29T01:47:11.820Z,400.30
2022-10-29T01:48:11.815Z,400.83
2022-10-29T01:49:11.804Z,400.57
2022-10-29T01:50:11.795Z,401.32
2022-10-29T01:51:11.780Z,401.28
2022-10-29T01:52:11.779Z,400.87
2022-10-29T01:53:11.769Z,401.87
2022-10-29T01:54:11.758Z,401.91
2022-10-29T01:55:11.730Z,400.64
2022-10-29T01:56:11.713Z,400.58
2022-10-29T01:57:11.710Z,401.42
2022-10-29T01:58:11.810Z,400.40
2022-10-29T01:59:18.370Z,400.71
2022-10-29T02:00:12.681Z,400.25
2022-10-29T02:01:11.806Z,400.36
2022-10-29T02:02:11.671Z,402.35
2022-10-29T02:03:11.654Z,400.45
2022-10-29T02:04:11.633Z,400.68
2022-10-29T02:05:11.618Z,400.17
2022-10-29T02:06:11.610Z,401.90
2022-10-29T02:07:11.602Z,401.80
2022-10-29T02:08:11.621Z,400.20
2022-10-29T02:09:11.580Z,400.02
2022-10-29T02:10:11.564Z,401.20
2022-10-29T02:11:11.565Z,401.42
2022-10-29T02:12:11.540Z,400.92
2022-10-29T02:13:11.615Z,400.81
2022-10-29T02:14:11.532Z,402.08
2022-10-29T02:15:11.506Z,399.66
2022-10-29T02:16:11.493Z,400.11
2022-10-29T02:17:11.492Z,399.90
2022-10-29T02:18:11.479Z,400.58
2022-10-29T02:19:11.486Z,400.42
2022-10-29T02:20:11.510Z,399.46
2022-10-29T02:21:11.460Z,400.77
2022-10-29T02:22:11.427Z,401.08
2022-10-29T02:23:11.426Z,400.53
2022-10-29T02:24:11.424Z,400.18
2022-10-29T02:25:11.471Z,401.48
2022-10-29T02:26:11.386Z,400.89
2022-10-29T02:27:11.381Z,400.97
2022-10-29T02:28:11.383Z,400.50
2022-10-29T02:29:11.350Z,400.74
2022-10-29T02:30:11.354Z,400.35
2022-10-29T02:31:11.326Z,400.35
2022-10-29T02:32:11.310Z,400.50
2022-10-29T02:33:11.323Z,401.84
2022-10-29T02:34:11.305Z,400.28
2022-10-29T02:35:11.294Z,401.60
2022-10-29T02:36:11.297Z,401.35
2022-10-29T02:37:11.280Z,400.64
2022-10-29T02:38:11.290Z,401.39
2022-10-29T02:39:11.266Z,400.94
2022-10-29T02:40:11.224Z,401.91
2022-10-29T02:41:11.228Z,400.77
2022-10-29T02:42:11.200Z,400.87
2022-10-29T02:43:11.261Z,400.76
2022-10-29T02:44:11.188Z,400.97
2022-10-29T02:45:11.172Z,401.86
2022-10-29T02:46:11.160Z,400.40
2022-10-29T02:47:11.158Z,400.17
2022-10-29T02:48:11.136Z,400.76
2022-10-29T02:49:11.128Z,400.99
2022-10-29T02:50:11.115Z,401.33
2022-10-29T02:51:11.109Z,401.54
2022-10-29T02:52:11.113Z,400.61
2022-10-29T02:53:11.101Z,401.22
2022-10-29T02:54:11.073Z,400.83
2022-10-29T02:55:11.066Z,400.90
2022-10-29T02:56:11.044Z,401.39
2022-10-29T02:57:11.031Z,401.78
2022-10-29T02:58:11.078Z,400.77
2022-10-29T02:59:12.010Z,401.05
2022-10-29T03:00:10.999Z,401.40
2022-10-29T03:01:11.039Z,401.15
2022-10-29T03:02:11.103Z,401.01
2022-10-29T03:03:10.986Z,400.44
2022-10-29T03:04:10.967Z,400.84
2022-10-29T03:05:10.948Z,401.96
2022-10-29T03:06:10.933Z,401.14
2022-10-29T03:07:10.924Z,402.02
2022-10-29T03:08:10.911Z,401.16
2022-10-29T03:09:10.918Z,401.42
2022-10-29T03:10:10.895Z,401.07
2022-10-29T03:11:10.880Z,400.71
2022-10-29T03:12:10.864Z,400.95
2022-10-29T03:13:10.854Z,401.50
2022-10-29T03:14:10.854Z,401.05
2022-10-29T03:15:10.849Z,400.75
2022-10-29T03:16:10.821Z,400.27
2022-10-29T03:17:10.819Z,401.52
2022-10-29T03:18:10.801Z,402.39
2022-10-29T03:19:10.794Z,401.30
2022-10-29T03:20:10.801Z,401.34
2022-10-29T03:21:10.771Z,400.74
2022-10-29T03:22:10.753Z,401.59
2022-10-29T03:23:10.746Z,401.96
2022-10-29T03:24:10.758Z,400.75
2022-10-29T03:25:10.735Z,401.17
2022-10-29T03:26:10.740Z,401.84
2022-10-29T03:27:10.707Z,400.86
2022-10-29T03:28:10.691Z,401.01
2022-10-29T03:29:10.684Z,402.54
2022-10-29T03:30:10.668Z,401.51
2022-10-29T03:31:10.672Z,402.09
2022-10-29T03:32:10.687Z,401.26
2022-10-29T03:33:10.642Z,401.65
2022-10-29T03:34:10.623Z,402.27
2022-10-29T03:35:10.611Z,401.81
2022-10-29T03:36:10.760Z,399.88
2022-10-29T03:37:10.600Z,399.88
2022-10-29T03:38:10.578Z,400.52
2022-10-29T03:39:10.564Z,399.77
2022-10-29T03:40:10.556Z,399.45
2022-10-29T03:41:10.829Z,399.57
2022-10-29T03:42:10.524Z,399.70
2022-10-29T03:43:10.541Z,399.73
2022-10-29T03:44:10.513Z,400.75
2022-10-29T03:45:10.514Z,401.98
2022-10-29T03:46:10.489Z,401.59
2022-10-29T03:47:10.483Z,400.85
2022-10-29T03:48:10.472Z,401.50
2022-10-29T03:49:11.223Z,401.01
2022-10-29T03:50:10.451Z,401.48
2022-10-29T03:51:10.433Z,400.85
2022-10-29T03:52:10.418Z,403.39
2022-10-29T03:53:10.418Z,400.60
2022-10-29T03:54:10.404Z,401.85
2022-10-29T03:55:10.417Z,402.12
2022-10-29T03:56:10.369Z,400.59
2022-10-29T03:57:10.370Z,399.99
2022-10-29T03:58:10.346Z,400.58
2022-10-29T04:00:10.336Z,402.09
2022-10-29T04:01:10.453Z,401.27
2022-10-29T04:02:10.513Z,400.57
2022-10-29T04:03:10.311Z,400.34
2022-10-29T04:04:10.302Z,401.55
2022-10-29T04:05:10.311Z,402.15
2022-10-29T04:06:10.277Z,402.33
2022-10-29T04:07:10.255Z,402.23
2022-10-29T04:08:10.264Z,400.55
2022-10-29T04:09:10.245Z,401.41
2022-10-29T04:10:10.227Z,400.62
2022-10-29T04:11:10.218Z,400.88
2022-10-29T04:12:10.200Z,401.57
2022-10-29T04:13:10.228Z,400.41
2022-10-29T04:14:10.200Z,400.18
2022-10-29T04:15:10.178Z,400.03
2022-10-29T04:16:10.184Z,400.70
2022-10-29T04:17:10.791Z,401.03
2022-10-29T04:18:10.170Z,401.53
2022-10-29T04:19:10.139Z,402.95
2022-10-29T04:20:21.069Z,401.13
2022-10-29T04:24:18.805Z,400.42
2022-10-29T04:28:42.437Z,400.27
2022-10-29T04:29:11.017Z,401.34
2022-10-29T04:30:10.094Z,400.45
2022-10-29T04:31:09.989Z,400.14
2022-10-29T04:32:09.976Z,400.47
2022-10-29T04:33:09.968Z,401.35
2022-10-29T04:34:09.956Z,401.71
2022-10-29T04:35:09.954Z,401.30
2022-10-29T04:36:09.964Z,402.08
2022-10-29T04:37:09.929Z,402.06
2022-10-29T04:38:09.911Z,401.27
2022-10-29T04:39:09.914Z,400.87
2022-10-29T04:40:09.895Z,401.07
2022-10-29T04:41:09.905Z,402.01
2022-10-29T04:42:09.993Z,402.99
2022-10-29T04:43:09.855Z,401.13
2022-10-29T04:44:09.846Z,402.71
2022-10-29T04:45:09.834Z,400.29
2022-10-29T04:46:09.823Z,400.97
2022-10-29T04:47:09.832Z,401.17
2022-10-29T04:48:09.821Z,402.36
2022-10-29T04:49:09.882Z,400.13
2022-10-29T04:50:09.783Z,400.74
2022-10-29T04:51:09.778Z,400.63
2022-10-29T04:52:10.740Z,401.60
2022-10-29T04:53:09.745Z,400.29
2022-10-29T04:54:09.742Z,400.85
2022-10-29T04:55:09.720Z,401.97
2022-10-29T04:56:09.731Z,401.55
2022-10-29T04:57:09.698Z,400.01
2022-10-29T04:58:09.692Z,399.91
2022-10-29T04:59:09.672Z,400.34
2022-10-29T05:00:11.021Z,401.10
2022-10-29T05:01:09.811Z,401.18
2022-10-29T05:02:09.643Z,402.48
2022-10-29T05:03:09.635Z,400.58
2022-10-29T05:04:09.618Z,401.06
2022-10-29T05:05:09.613Z,401.02
2022-10-29T05:06:09.663Z,401.44
2022-10-29T05:07:09.606Z,400.92
2022-10-29T05:08:09.583Z,400.62
2022-10-29T05:09:09.568Z,401.12
2022-10-29T05:10:09.574Z,399.86
2022-10-29T05:11:09.569Z,400.25
2022-10-29T05:12:09.533Z,401.23
2022-10-29T05:13:09.553Z,400.66
2022-10-29T05:14:09.513Z,399.88
2022-10-29T05:15:09.507Z,399.62
2022-10-29T05:16:09.523Z,400.20
2022-10-29T05:17:09.479Z,400.27
2022-10-29T05:18:09.483Z,400.05
2022-10-29T05:19:09.451Z,399.49
2022-10-29T05:20:09.441Z,400.42
2022-10-29T05:21:09.429Z,400.48
2022-10-29T05:22:09.426Z,401.85
2022-10-29T05:23:09.408Z,399.60
2022-10-29T05:24:09.398Z,400.25
2022-10-29T05:25:09.389Z,400.39
2022-10-29T05:26:09.385Z,399.68
2022-10-29T05:27:09.383Z,400.66
2022-10-29T05:28:09.359Z,400.53
2022-10-29T05:29:09.345Z,400.58
2022-10-29T05:30:09.339Z,400.43
2022-10-29T05:31:09.321Z,402.10
2022-10-29T05:32:09.327Z,400.16
2022-10-29T05:33:09.320Z,400.34
2022-10-29T05:34:09.294Z,400.47
2022-10-29T05:35:09.272Z,400.60
2022-10-29T05:36:09.264Z,400.23
2022-10-29T05:37:09.250Z,401.02
2022-10-29T05:38:09.256Z,400.44
2022-10-29T05:39:09.232Z,401.29
2022-10-29T05:40:09.244Z,402.21
2022-10-29T05:41:09.223Z,400.14
2022-10-29T05:42:09.198Z,400.59
2022-10-29T05:43:09.231Z,400.35
2022-10-29T05:44:09.196Z,400.16
2022-10-29T05:45:09.169Z,402.19
2022-10-29T05:46:09.155Z,401.12
2022-10-29T05:47:09.137Z,400.81
2022-10-29T05:48:09.173Z,401.19
2022-10-29T05:49:09.136Z,401.08
2022-10-29T05:50:09.109Z,401.42
2022-10-29T05:51:09.103Z,400.92
2022-10-29T05:52:09.116Z,401.52
2022-10-29T05:53:09.084Z,401.71
2022-10-29T05:54:09.066Z,401.58
2022-10-29T05:55:09.064Z,401.35
2022-10-29T05:56:09.043Z,400.90
2022-10-29T05:57:09.040Z,401.32
2022-10-29T05:58:09.016Z,401.10
2022-10-29T05:59:09.011Z,402.15
2022-10-29T06:00:09.004Z,401.07
2022-10-29T06:01:09.004Z,400.35
2022-10-29T06:02:09.158Z,401.38
2022-10-29T06:03:09.028Z,401.60
2022-10-29T06:04:08.959Z,400.71
2022-10-29T06:05:08.977Z,400.90
2022-10-29T06:06:09.122Z,399.57
2022-10-29T06:07:08.918Z,400.66
2022-10-29T06:08:08.930Z,399.98
2022-10-29T06:09:08.898Z,401.60
2022-10-29T06:10:08.889Z,400.46
2022-10-29T06:11:08.881Z,400.98
2022-10-29T06:12:08.881Z,401.66
2022-10-29T06:13:08.848Z,400.05
2022-10-29T06:14:08.840Z,399.38
2022-10-29T06:15:08.833Z,400.00
2022-10-29T06:16:08.829Z,401.82
2022-10-29T06:17:08.806Z,400.84
2022-10-29T06:18:08.814Z,399.97
2022-10-29T06:19:08.780Z,401.31
2022-10-29T06:20:08.783Z,401.44
2022-10-29T06:21:08.778Z,401.38
2022-10-29T06:22:08.756Z,400.25
2022-10-29T06:23:08.746Z,401.15
2022-10-29T06:24:08.735Z,401.48
2022-10-29T06:25:08.724Z,400.75
2022-10-29T06:26:08.729Z,400.67
2022-10-29T06:27:08.705Z,403.34
2022-10-29T06:28:08.692Z,401.10
2022-10-29T06:29:08.683Z,401.19
2022-10-29T06:30:08.670Z,401.35
2022-10-29T06:31:08.667Z,401.08
2022-10-29T06:32:08.640Z,400.45
2022-10-29T06:33:08.629Z,400.92
2022-10-29T06:34:08.623Z,400.82
2022-10-29T06:35:08.635Z,400.89
2022-10-29T06:36:08.613Z,400.84
2022-10-29T06:37:08.591Z,400.91
2022-10-29T06:38:11.924Z,400.53
2022-10-29T06:39:08.564Z,399.65
2022-10-29T06:40:08.556Z,401.08
2022-10-29T06:41:08.544Z,400.39
2022-10-29T06:42:08.549Z,401.19
2022-10-29T06:43:08.526Z,402.01
2022-10-29T06:44:08.517Z,401.43
2022-10-29T06:45:08.496Z,400.85
2022-10-29T06:46:08.505Z,401.28
2022-10-29T06:47:08.473Z,401.02
2022-10-29T06:48:08.473Z,400.71
2022-10-29T06:49:08.446Z,402.32
2022-10-29T06:50:08.450Z,401.31
2022-10-29T06:51:08.477Z,400.72
2022-10-29T06:52:08.425Z,400.50
2022-10-29T06:53:08.408Z,400.76
2022-10-29T06:54:08.407Z,400.58
2022-10-29T06:55:08.381Z,400.79
2022-10-29T06:56:08.370Z,400.44
2022-10-29T06:57:08.370Z,400.32
2022-10-29T06:58:08.366Z,400.63
2022-10-29T06:59:08.360Z,399.47
2022-10-29T07:00:09.287Z,400.55
2022-10-29T07:01:08.342Z,401.09
2022-10-29T07:02:08.353Z,400.09
2022-10-29T07:03:08.298Z,400.84
2022-10-29T07:04:08.304Z,399.83
2022-10-29T07:05:08.277Z,399.76
2022-10-29T07:06:08.282Z,398.88
2022-10-29T07:07:08.255Z,398.60
2022-10-29T07:08:08.258Z,399.32
2022-10-29T07:09:08.231Z,398.42
2022-10-29T07:10:08.241Z,399.41
2022-10-29T07:11:08.206Z,398.78
2022-10-29T07:12:08.198Z,399.26
2022-10-29T07:13:08.183Z,398.48
2022-10-29T07:14:08.171Z,398.44
2022-10-29T07:15:08.164Z,397.76
2022-10-29T07:16:08.162Z,397.78
2022-10-29T07:17:08.139Z,397.50
2022-10-29T07:18:08.136Z,398.05
2022-10-29T07:19:08.125Z,397.38
2022-10-29T07:20:08.113Z,397.49
2022-10-29T07:21:08.110Z,398.01
2022-10-29T07:22:08.087Z,398.10
2022-10-29T07:23:08.080Z,399.03
2022-10-29T07:24:08.072Z,397.07
2022-10-29T07:25:08.051Z,397.80
2022-10-29T07:26:08.052Z,398.11
2022-10-29T07:27:08.072Z,396.57
2022-10-29T07:28:08.901Z,397.14
2022-10-29T07:29:08.007Z,397.74
2022-10-29T07:30:07.999Z,397.60
2022-10-29T07:31:07.997Z,397.31
2022-10-29T07:32:07.979Z,397.22
2022-10-29T07:33:07.965Z,398.36
2022-10-29T07:34:07.962Z,398.19
2022-10-29T07:35:07.936Z,397.60
2022-10-29T07:36:07.930Z,396.66
2022-10-29T07:37:08.797Z,398.34
2022-10-29T07:38:10.725Z,397.27
2022-10-29T07:39:07.895Z,396.97
2022-10-29T07:40:07.885Z,397.37
2022-10-29T07:41:07.929Z,398.00
2022-10-29T07:42:07.864Z,397.08
2022-10-29T07:43:07.881Z,397.14
2022-10-29T07:44:07.846Z,397.47
2022-10-29T07:45:07.845Z,397.18
2022-10-29T07:46:07.825Z,398.62
2022-10-29T07:47:07.807Z,396.71
2022-10-29T07:48:07.819Z,397.03
2022-10-29T07:49:07.793Z,397.93
2022-10-29T07:50:07.774Z,399.14
2022-10-29T07:51:07.766Z,396.82
2022-10-29T07:52:07.754Z,398.14
2022-10-29T07:53:07.742Z,396.88
2022-10-29T07:54:10.875Z,396.50
2022-10-29T07:55:08.715Z,396.23
2022-10-29T07:56:07.712Z,396.21
2022-10-29T07:57:07.693Z,395.10
2022-10-29T07:58:07.688Z,397.22
2022-10-29T07:59:07.686Z,396.84
2022-10-29T08:00:07.666Z,397.60
2022-10-29T08:01:07.716Z,396.71
2022-10-29T08:02:07.671Z,396.59
2022-10-29T08:03:07.635Z,396.66
2022-10-29T08:04:07.637Z,396.45
2022-10-29T08:05:07.608Z,396.00
2022-10-29T08:06:07.608Z,396.91
2022-10-29T08:07:07.583Z,397.83
2022-10-29T08:08:07.597Z,396.51
2022-10-29T08:09:07.560Z,396.11
2022-10-29T08:10:07.562Z,397.29
2022-10-29T08:11:07.533Z,396.47
2022-10-29T08:12:07.536Z,396.22
2022-10-29T08:13:07.515Z,394.61
2022-10-29T08:14:07.507Z,396.31
2022-10-29T08:15:07.492Z,395.85
2022-10-29T08:16:07.504Z,394.07
2022-10-29T08:17:07.475Z,395.20
2022-10-29T08:18:07.466Z,393.76
2022-10-29T08:19:07.451Z,394.03
2022-10-29T08:20:07.466Z,394.10
2022-10-29T08:21:07.449Z,392.69
2022-10-29T08:22:07.434Z,393.37
2022-10-29T08:23:07.408Z,392.95
2022-10-29T08:24:07.403Z,392.30
2022-10-29T08:25:07.381Z,392.26
2022-10-29T08:26:07.397Z,391.65
2022-10-29T08:27:07.377Z,392.68
2022-10-29T08:28:07.389Z,392.70
2022-10-29T08:29:07.341Z,392.57
2022-10-29T08:30:07.336Z,392.11
2022-10-29T08:31:07.318Z,394.21
2022-10-29T08:32:07.340Z,394.13
2022-10-29T08:33:07.309Z,391.81
2022-10-29T08:34:11.099Z,392.30
2022-10-29T08:35:07.267Z,394.37
2022-10-29T08:36:07.270Z,393.85
2022-10-29T08:37:07.263Z,393.50
2022-10-29T08:38:07.241Z,394.87
2022-10-29T08:39:07.231Z,396.98
2022-10-29T08:40:07.221Z,396.43
2022-10-29T08:41:07.233Z,395.99
2022-10-29T08:42:07.200Z,397.57
2022-10-29T08:43:07.201Z,397.74
2022-10-29T08:44:07.185Z,400.10
2022-10-29T08:45:07.171Z,398.76
2022-10-29T08:46:07.160Z,399.18
2022-10-29T08:47:08.013Z,399.19
2022-10-29T08:48:07.146Z,398.98
2022-10-29T08:49:07.120Z,397.89
2022-10-29T08:50:07.109Z,399.70
2022-10-29T08:51:07.114Z,399.42
2022-10-29T08:52:07.089Z,401.19
2022-10-29T08:53:24.004Z,400.63
2022-10-29T08:54:29.998Z,400.87
2022-10-29T08:55:08.058Z,398.73
2022-10-29T08:56:07.051Z,399.76
2022-10-29T08:57:07.028Z,398.73
2022-10-29T08:58:07.033Z,400.16
2022-10-29T08:59:07.035Z,397.67
2022-10-29T09:01:07.040Z,400.08
2022-10-29T09:02:07.044Z,399.36
2022-10-29T09:03:06.964Z,400.80
2022-10-29T09:04:06.942Z,400.40
2022-10-29T09:05:06.958Z,397.01
2022-10-29T09:06:06.925Z,399.30
2022-10-29T09:07:06.917Z,398.51
2022-10-29T09:08:06.905Z,398.77
2022-10-29T09:09:06.888Z,401.16
2022-10-29T09:10:06.925Z,400.02
2022-10-29T09:11:06.878Z,400.62
2022-10-29T09:12:06.872Z,399.67
2022-10-29T09:13:06.907Z,398.74
2022-10-29T09:14:07.839Z,401.79
2022-10-29T09:15:06.830Z,400.90
2022-10-29T09:16:06.831Z,402.44
2022-10-29T09:17:08.288Z,401.05
2022-10-29T09:18:06.795Z,399.70
2022-10-29T09:19:06.774Z,401.48
2022-10-29T09:20:06.769Z,400.86
2022-10-29T09:21:06.766Z,400.68
2022-10-29T09:22:06.742Z,400.48
2022-10-29T09:23:06.735Z,400.87
2022-10-29T09:24:06.721Z,401.23
2022-10-29T09:25:06.715Z,401.30
2022-10-29T09:26:06.699Z,401.72
2022-10-29T09:27:09.756Z,402.10
2022-10-29T09:28:06.682Z,401.37
2022-10-29T09:29:06.668Z,402.58
2022-10-29T09:30:06.656Z,402.51
2022-10-29T09:31:06.639Z,403.31
2022-10-29T09:32:06.639Z,403.67
2022-10-29T09:33:06.615Z,404.58
2022-10-29T09:34:06.603Z,402.08
2022-10-29T09:35:06.702Z,403.82
2022-10-29T09:36:06.580Z,403.99
2022-10-29T09:37:06.590Z,402.03
2022-10-29T09:38:06.595Z,398.55
2022-10-29T09:39:06.583Z,397.69
2022-10-29T09:40:06.615Z,394.03
2022-10-29T09:41:06.583Z,397.99
2022-10-29T09:42:06.592Z,397.26
2022-10-29T09:43:06.524Z,397.49
2022-10-29T09:44:06.522Z,397.60
2022-10-29T09:45:06.539Z,398.17
2022-10-29T09:46:06.501Z,397.98
2022-10-29T09:47:09.642Z,396.92
2022-10-29T09:48:06.493Z,398.78
2022-10-29T09:50:08.751Z,398.43
2022-10-29T09:51:06.472Z,398.63
2022-10-29T09:52:06.420Z,398.30
2022-10-29T09:53:06.427Z,398.88
2022-10-29T09:54:06.469Z,397.98
2022-10-29T09:55:06.378Z,398.12
2022-10-29T09:56:06.356Z,396.08
2022-10-29T09:57:06.357Z,398.55
2022-10-29T09:58:06.342Z,396.03
2022-10-29T09:59:06.356Z,398.27
2022-10-29T10:00:06.329Z,400.11
2022-10-29T10:01:06.310Z,396.79
2022-10-29T10:02:06.454Z,398.16
2022-10-29T10:03:06.347Z,399.06
2022-10-29T10:04:06.279Z,398.28
2022-10-29T10:05:06.256Z,395.03
2022-10-29T10:06:06.263Z,399.44
2022-10-29T10:07:06.241Z,398.38
2022-10-29T10:08:06.228Z,397.81
2022-10-29T10:09:06.218Z,397.87
2022-10-29T10:10:06.222Z,399.54
2022-10-29T10:11:06.198Z,398.51
2022-10-29T10:12:06.195Z,398.58
2022-10-29T10:13:06.183Z,399.50
2022-10-29T10:14:06.167Z,399.45
2022-10-29T10:15:06.146Z,399.89
2022-10-29T10:16:06.205Z,399.47
2022-10-29T10:17:06.131Z,399.95
2022-10-29T10:18:06.119Z,402.24
2022-10-29T10:19:06.109Z,399.85
2022-10-29T10:20:06.096Z,399.40
2022-10-29T10:21:06.090Z,397.90
2022-10-29T10:22:06.102Z,398.95
2022-10-29T10:23:06.868Z,400.94
2022-10-29T10:24:06.060Z,401.15
2022-10-29T10:25:06.104Z,400.37
2022-10-29T10:26:06.065Z,401.01
2022-10-29T10:27:06.028Z,397.80
2022-10-29T10:28:06.025Z,401.82
2022-10-29T10:29:05.992Z,401.31
2022-10-29T10:30:05.983Z,399.06
2022-10-29T10:31:05.982Z,400.53
2022-10-29T10:32:05.970Z,402.85
2022-10-29T10:33:05.952Z,401.76
2022-10-29T10:34:05.950Z,401.01
2022-10-29T10:35:05.936Z,399.93
2022-10-29T10:36:05.937Z,400.78
2022-10-29T10:37:05.964Z,401.84
2022-10-29T10:38:05.897Z,400.36
2022-10-29T10:39:05.886Z,401.27
2022-10-29T10:40:05.893Z,400.23
2022-10-29T10:41:05.862Z,401.43
2022-10-29T10:42:05.867Z,402.85
2022-10-29T10:43:08.288Z,401.15
2022-10-29T10:44:05.851Z,400.77
2022-10-29T10:45:05.821Z,402.59
2022-10-29T10:46:05.802Z,399.28
2022-10-29T10:47:06.481Z,400.98
2022-10-29T10:48:05.909Z,401.49
2022-10-29T10:49:05.789Z,402.43
2022-10-29T10:50:05.771Z,403.03
2022-10-29T10:51:05.759Z,402.39
2022-10-29T10:52:05.743Z,401.78
2022-10-29T10:53:05.745Z,400.85
2022-10-29T10:54:05.746Z,402.14
2022-10-29T10:55:05.714Z,402.71
2022-10-29T10:56:05.702Z,401.00
2022-10-29T10:57:05.708Z,401.55
2022-10-29T10:58:05.672Z,402.07
2022-10-29T10:59:05.686Z,401.75
2022-10-29T11:00:05.657Z,402.80
2022-10-29T11:01:05.730Z,400.46
2022-10-29T11:02:05.710Z,401.41
2022-10-29T11:03:05.629Z,400.80
2022-10-29T11:04:05.625Z,399.64
2022-10-29T11:05:07.945Z,400.32
2022-10-29T11:06:05.615Z,400.96
2022-10-29T11:07:05.589Z,398.55
2022-10-29T11:08:05.573Z,400.30
2022-10-29T11:09:05.576Z,401.73
2022-10-29T11:10:05.557Z,399.89
2022-10-29T11:11:05.552Z,399.50
2022-10-29T11:12:05.525Z,399.43
2022-10-29T11:13:05.515Z,399.17
2022-10-29T11:14:05.504Z,398.92
2022-10-29T11:15:05.498Z,398.78
2022-10-29T11:16:05.495Z,399.98
2022-10-29T11:17:05.485Z,398.48
2022-10-29T11:18:05.531Z,400.19
2022-10-29T11:19:05.449Z,396.96
2022-10-29T11:20:05.430Z,398.45
2022-10-29T11:21:05.439Z,399.33
2022-10-29T11:22:05.415Z,398.20
2022-10-29T11:23:05.404Z,398.88
2022-10-29T11:24:05.405Z,400.22
2022-10-29T11:25:05.394Z,388.38
2022-10-29T11:26:05.390Z,398.23
2022-10-29T11:27:05.361Z,398.87
2022-10-29T11:28:05.359Z,397.87
2022-10-29T11:29:05.367Z,397.54
2022-10-29T11:30:05.340Z,399.58
2022-10-29T11:31:05.322Z,398.75
2022-10-29T11:32:05.331Z,401.42
2022-10-29T11:33:05.340Z,393.52
2022-10-29T11:34:05.288Z,395.42
2022-10-29T11:35:05.287Z,398.74
2022-10-29T11:36:05.261Z,398.50
2022-10-29T11:37:05.268Z,399.01
2022-10-29T11:38:05.267Z,398.36
2022-10-29T11:39:05.230Z,398.82
2022-10-29T11:40:05.261Z,398.76
2022-10-29T11:41:05.222Z,399.11
2022-10-29T11:42:05.218Z,398.49
2022-10-29T11:43:08.523Z,399.20
2022-10-29T11:44:05.167Z,400.07
2022-10-29T11:45:05.169Z,400.60
2022-10-29T11:46:05.151Z,400.32
2022-10-29T11:47:05.161Z,400.03
2022-10-29T11:48:05.187Z,400.52
2022-10-29T11:49:05.142Z,400.38
2022-10-29T11:50:05.115Z,401.00
2022-10-29T11:51:05.100Z,400.08
2022-10-29T11:52:05.110Z,401.36
2022-10-29T11:53:05.077Z,400.04
2022-10-29T11:54:05.063Z,400.99
2022-10-29T11:55:05.056Z,400.41
2022-10-29T11:56:05.045Z,399.33
2022-10-29T11:57:05.039Z,399.45
2022-10-29T11:58:05.046Z,399.88
2022-10-29T11:59:05.006Z,400.06
2022-10-29T12:00:04.990Z,399.76
2022-10-29T12:01:04.993Z,400.23
2022-10-29T12:02:05.056Z,402.46
2022-10-29T12:03:04.988Z,399.48
2022-10-29T12:04:04.995Z,399.77
2022-10-29T12:05:04.980Z,400.24
2022-10-29T12:06:04.927Z,400.85
2022-10-29T12:07:04.927Z,401.87
2022-10-29T12:08:04.921Z,399.69
2022-10-29T12:09:04.893Z,397.71
2022-10-29T12:10:04.878Z,400.72
2022-10-29T12:11:04.871Z,401.20
2022-10-29T12:12:04.862Z,402.55
2022-10-29T12:13:04.852Z,401.17
2022-10-29T12:14:04.854Z,402.50
2022-10-29T12:15:04.826Z,401.70
2022-10-29T12:16:04.823Z,401.16
2022-10-29T12:17:04.818Z,402.22
2022-10-29T12:18:04.828Z,400.01
2022-10-29T12:19:04.796Z,401.94
2022-10-29T12:21:04.758Z,401.52
2022-10-29T12:22:04.768Z,400.99
2022-10-29T12:23:08.003Z,400.78
2022-10-29T12:24:05.725Z,401.53
2022-10-29T12:25:04.727Z,400.68
2022-10-29T12:26:04.739Z,400.29
2022-10-29T12:27:04.698Z,401.06
2022-10-29T12:28:04.685Z,400.09
2022-10-29T12:29:04.681Z,402.97
2022-10-29T12:30:04.660Z,400.28
2022-10-29T12:31:04.648Z,403.58
2022-10-29T12:32:04.650Z,402.14
2022-10-29T12:33:05.439Z,399.56
2022-10-29T12:34:04.620Z,400.86
2022-10-29T12:35:04.674Z,401.63
2022-10-29T12:36:04.599Z,400.82
2022-10-29T12:37:04.582Z,400.73
2022-10-29T12:38:04.585Z,400.82